CSC8621 ZUUU-ZUNZ
Flight info
| Callsign | CSC8621 |
|---|---|
| Flight time | 1h 37m |
| Altitude | 32100 |
| Route | MUMGO B213 KADSA W16 ELNUN J554 UGPIT |
| Aircraft | A319/M-SDE3FGHIRWY/LB1 |
Departure
| Time | 2026-04-17 18:21 |
|---|---|
| Airport | Chengdu Shuangliu International Airport (ZUUU) |
Arrival
| Time | 2026-04-17 19:59 |
|---|---|
| Airport | Nyingchi Mainling Airport (ZUNZ) |
| Time | Latitude | Longitude | Altitude | Speed | Heading |
|---|---|---|---|---|---|
| 2026-04-17 17:58 | 30.58034 | 103.95387 | 1647 ft | 0 kts | 204° |
| 2026-04-17 18:10 | 30.58036 | 103.95388 | 1647 ft | 2 kts | 204° |
| 2026-04-17 18:10 | 30.58050 | 103.95396 | 1668 ft | 2 kts | 204° |
| 2026-04-17 18:10 | 30.58065 | 103.95403 | 1644 ft | 2 kts | 211° |
| 2026-04-17 18:11 | 30.58078 | 103.95415 | 1647 ft | 2 kts | 238° |
| 2026-04-17 18:11 | 30.58084 | 103.95432 | 1647 ft | 2 kts | 281° |
| 2026-04-17 18:11 | 30.58082 | 103.95442 | 1647 ft | 0 kts | 291° |
| 2026-04-17 18:13 | 30.58083 | 103.95439 | 1647 ft | 2 kts | 291° |
| 2026-04-17 18:13 | 30.58092 | 103.95412 | 1647 ft | 5 kts | 291° |
| 2026-04-17 18:13 | 30.58109 | 103.95360 | 1647 ft | 9 kts | 291° |
| 2026-04-17 18:13 | 30.58122 | 103.95322 | 1647 ft | 2 kts | 291° |
| 2026-04-17 18:14 | 30.58131 | 103.95298 | 1647 ft | 5 kts | 292° |
| 2026-04-17 18:14 | 30.58145 | 103.95257 | 1647 ft | 7 kts | 292° |
| 2026-04-17 18:14 | 30.58165 | 103.95201 | 1647 ft | 8 kts | 292° |
| 2026-04-17 18:14 | 30.58189 | 103.95136 | 1647 ft | 10 kts | 294° |
| 2026-04-17 18:15 | 30.58173 | 103.95072 | 1647 ft | 10 kts | 209° |
| 2026-04-17 18:15 | 30.58106 | 103.95040 | 1646 ft | 11 kts | 201° |
| 2026-04-17 18:15 | 30.58033 | 103.95007 | 1647 ft | 12 kts | 201° |
| 2026-04-17 18:15 | 30.57954 | 103.94969 | 1647 ft | 13 kts | 202° |
| 2026-04-17 18:16 | 30.57870 | 103.94930 | 1647 ft | 13 kts | 201° |
| 2026-04-17 18:16 | 30.57781 | 103.94888 | 1647 ft | 14 kts | 202° |
| 2026-04-17 18:16 | 30.57687 | 103.94844 | 1647 ft | 15 kts | 202° |
| 2026-04-17 18:16 | 30.57588 | 103.94796 | 1647 ft | 16 kts | 202° |
| 2026-04-17 18:17 | 30.57482 | 103.94747 | 1647 ft | 17 kts | 202° |
| 2026-04-17 18:17 | 30.57253 | 103.94638 | 1647 ft | 19 kts | 202° |
| 2026-04-17 18:17 | 30.57130 | 103.94581 | 1647 ft | 19 kts | 201° |
| 2026-04-17 18:18 | 30.57002 | 103.94521 | 1647 ft | 20 kts | 202° |
| 2026-04-17 18:18 | 30.56873 | 103.94460 | 1647 ft | 21 kts | 202° |
| 2026-04-17 18:18 | 30.56736 | 103.94396 | 1647 ft | 22 kts | 202° |
| 2026-04-17 18:18 | 30.56588 | 103.94327 | 1647 ft | 24 kts | 201° |
| 2026-04-17 18:19 | 30.56430 | 103.94252 | 1647 ft | 19 kts | 201° |
| 2026-04-17 18:19 | 30.56321 | 103.94200 | 1647 ft | 7 kts | 202° |
| 2026-04-17 18:19 | 30.56305 | 103.94143 | 1647 ft | 10 kts | 284° |
| 2026-04-17 18:19 | 30.56337 | 103.94053 | 1647 ft | 14 kts | 293° |
| 2026-04-17 18:20 | 30.56371 | 103.94012 | 1647 ft | 7 kts | 26° |
| 2026-04-17 18:20 | 30.56415 | 103.94037 | 1647 ft | 0 kts | 21° |
| 2026-04-17 18:20 | 30.56416 | 103.94037 | 1647 ft | 1 kts | 21° |
| 2026-04-17 18:20 | 30.56492 | 103.94072 | 1649 ft | 38 kts | 21° |
| 2026-04-17 18:21 | 30.56957 | 103.94288 | 1646 ft | 104 kts | 22° |
| 2026-04-17 18:21 | 30.57805 | 103.94680 | 1648 ft | 156 kts | 21° |
| 2026-04-17 18:21 | 30.58906 | 103.95188 | 1975 ft | 171 kts | 22° |
| 2026-04-17 18:21 | 30.60000 | 103.95684 | 2626 ft | 169 kts | 14° |
| 2026-04-17 18:22 | 30.61166 | 103.95572 | 3101 ft | 172 kts | 336° |
| 2026-04-17 18:22 | 30.62251 | 103.94970 | 3465 ft | 182 kts | 334° |
| 2026-04-17 18:22 | 30.63467 | 103.94301 | 3620 ft | 205 kts | 334° |
| 2026-04-17 18:22 | 30.64831 | 103.93556 | 3807 ft | 230 kts | 334° |
| 2026-04-17 18:23 | 30.66355 | 103.92726 | 4131 ft | 254 kts | 334° |
| 2026-04-17 18:23 | 30.68017 | 103.91822 | 4655 ft | 270 kts | 334° |
| 2026-04-17 18:23 | 30.69739 | 103.90889 | 5454 ft | 275 kts | 334° |
| 2026-04-17 18:23 | 30.71484 | 103.89948 | 6305 ft | 278 kts | 335° |
| 2026-04-17 18:24 | 30.73217 | 103.88987 | 7084 ft | 282 kts | 330° |
| 2026-04-17 18:24 | 30.74673 | 103.87476 | 7810 ft | 284 kts | 303° |
| 2026-04-17 18:24 | 30.75452 | 103.85379 | 8585 ft | 284 kts | 279° |
| 2026-04-17 18:24 | 30.75450 | 103.83100 | 9380 ft | 284 kts | 256° |
| 2026-04-17 18:25 | 30.74677 | 103.81005 | 10138 ft | 284 kts | 234° |
| 2026-04-17 18:25 | 30.73356 | 103.79281 | 10817 ft | 287 kts | 226° |
| 2026-04-17 18:25 | 30.71951 | 103.77593 | 11365 ft | 298 kts | 226° |
| 2026-04-17 18:25 | 30.70451 | 103.75804 | 11514 ft | 320 kts | 226° |
| 2026-04-17 18:26 | 30.68867 | 103.73914 | 11640 ft | 341 kts | 226° |
| 2026-04-17 18:26 | 30.67242 | 103.71830 | 11978 ft | 353 kts | 234° |
| 2026-04-17 18:26 | 30.66079 | 103.69308 | 12476 ft | 358 kts | 250° |
| 2026-04-17 18:26 | 30.65566 | 103.66468 | 13025 ft | 362 kts | 266° |
| 2026-04-17 18:27 | 30.65761 | 103.63543 | 13564 ft | 366 kts | 283° |
| 2026-04-17 18:27 | 30.66433 | 103.60676 | 14081 ft | 370 kts | 285° |
| 2026-04-17 18:27 | 30.67134 | 103.57794 | 14599 ft | 371 kts | 286° |
| 2026-04-17 18:27 | 30.67838 | 103.54903 | 15156 ft | 373 kts | 286° |
| 2026-04-17 18:28 | 30.68543 | 103.52001 | 15713 ft | 374 kts | 286° |
| 2026-04-17 18:28 | 30.69243 | 103.49124 | 16257 ft | 376 kts | 286° |
| 2026-04-17 18:28 | 30.69952 | 103.46199 | 16820 ft | 377 kts | 286° |
| 2026-04-17 18:28 | 30.70663 | 103.43258 | 17396 ft | 378 kts | 287° |
| 2026-04-17 18:29 | 30.71373 | 103.40312 | 17967 ft | 380 kts | 286° |
| 2026-04-17 18:29 | 30.72088 | 103.37348 | 18497 ft | 381 kts | 286° |
| 2026-04-17 18:29 | 30.72805 | 103.34376 | 18983 ft | 383 kts | 287° |
| 2026-04-17 18:29 | 30.73524 | 103.31387 | 19496 ft | 384 kts | 287° |
| 2026-04-17 18:30 | 30.74233 | 103.28429 | 20026 ft | 386 kts | 287° |
| 2026-04-17 18:30 | 30.74956 | 103.25418 | 20536 ft | 388 kts | 287° |
| 2026-04-17 18:30 | 30.75681 | 103.22391 | 21032 ft | 389 kts | 287° |
| 2026-04-17 18:30 | 30.76410 | 103.19355 | 21540 ft | 391 kts | 287° |
| 2026-04-17 18:31 | 30.77139 | 103.16309 | 21981 ft | 392 kts | 287° |
| 2026-04-17 18:31 | 30.77870 | 103.13253 | 22437 ft | 393 kts | 287° |
| 2026-04-17 18:31 | 30.78603 | 103.10179 | 22884 ft | 395 kts | 287° |
| 2026-04-17 18:31 | 30.79334 | 103.07097 | 23341 ft | 396 kts | 287° |
| 2026-04-17 18:32 | 30.80052 | 103.04042 | 23727 ft | 398 kts | 285° |
| 2026-04-17 18:32 | 30.80508 | 103.00853 | 24085 ft | 402 kts | 277° |
| 2026-04-17 18:32 | 30.80546 | 102.97589 | 24486 ft | 405 kts | 271° |
| 2026-04-17 18:32 | 30.80482 | 102.94308 | 24878 ft | 406 kts | 272° |
| 2026-04-17 18:33 | 30.80421 | 102.91019 | 25265 ft | 407 kts | 272° |
| 2026-04-17 18:33 | 30.80364 | 102.87724 | 25667 ft | 408 kts | 272° |
| 2026-04-17 18:33 | 30.80307 | 102.84424 | 26008 ft | 409 kts | 272° |
| 2026-04-17 18:33 | 30.80252 | 102.81110 | 26364 ft | 410 kts | 273° |
| 2026-04-17 18:34 | 30.80198 | 102.77845 | 26683 ft | 410 kts | 273° |
| 2026-04-17 18:34 | 30.80138 | 102.74522 | 27007 ft | 411 kts | 272° |
| 2026-04-17 18:34 | 30.80075 | 102.71189 | 27314 ft | 413 kts | 273° |
| 2026-04-17 18:34 | 30.80010 | 102.67844 | 27645 ft | 415 kts | 273° |
| 2026-04-17 18:35 | 30.79946 | 102.64485 | 27982 ft | 416 kts | 273° |
| 2026-04-17 18:35 | 30.79880 | 102.61114 | 28310 ft | 417 kts | 273° |
| 2026-04-17 18:35 | 30.79811 | 102.57738 | 28568 ft | 419 kts | 273° |
| 2026-04-17 18:35 | 30.79741 | 102.54353 | 28897 ft | 419 kts | 274° |
| 2026-04-17 18:36 | 30.79672 | 102.50954 | 29168 ft | 421 kts | 274° |
| 2026-04-17 18:36 | 30.79601 | 102.47597 | 29453 ft | 422 kts | 274° |
| 2026-04-17 18:36 | 30.79528 | 102.44179 | 29740 ft | 423 kts | 274° |
| 2026-04-17 18:36 | 30.79454 | 102.40768 | 30172 ft | 421 kts | 274° |
| 2026-04-17 18:37 | 30.79381 | 102.37374 | 30516 ft | 419 kts | 274° |
| 2026-04-17 18:37 | 30.79307 | 102.33990 | 30870 ft | 417 kts | 274° |
| 2026-04-17 18:37 | 30.79231 | 102.30629 | 31265 ft | 415 kts | 273° |
| 2026-04-17 18:37 | 30.79157 | 102.27281 | 31614 ft | 413 kts | 274° |
| 2026-04-17 18:38 | 30.79083 | 102.23947 | 31969 ft | 411 kts | 274° |
| 2026-04-17 18:38 | 30.79010 | 102.20626 | 32143 ft | 410 kts | 273° |
| 2026-04-17 18:38 | 30.78886 | 102.15161 | 32181 ft | 405 kts | 273° |
| 2026-04-17 18:39 | 30.78709 | 102.07552 | 32185 ft | 405 kts | 273° |
| 2026-04-17 18:39 | 30.78547 | 102.01005 | 32178 ft | 405 kts | 273° |
| 2026-04-17 18:40 | 30.78410 | 101.95555 | 32177 ft | 406 kts | 273° |
| 2026-04-17 18:40 | 30.78380 | 101.89015 | 32166 ft | 401 kts | 279° |
| 2026-04-17 18:41 | 30.79025 | 101.81508 | 32169 ft | 402 kts | 279° |
| 2026-04-17 18:41 | 30.79555 | 101.75041 | 32157 ft | 401 kts | 279° |
| 2026-04-17 18:42 | 30.80002 | 101.69675 | 32152 ft | 401 kts | 279° |
| 2026-04-17 18:42 | 30.80544 | 101.63225 | 32139 ft | 401 kts | 279° |
| 2026-04-17 18:43 | 30.81070 | 101.56765 | 32132 ft | 401 kts | 279° |
| 2026-04-17 18:43 | 30.81664 | 101.49244 | 32129 ft | 402 kts | 278° |
| 2026-04-17 18:44 | 30.82094 | 101.43877 | 32121 ft | 401 kts | 279° |
| 2026-04-17 18:44 | 30.82621 | 101.37400 | 32121 ft | 402 kts | 278° |
| 2026-04-17 18:45 | 30.83227 | 101.29863 | 32121 ft | 403 kts | 278° |
| 2026-04-17 18:45 | 30.83657 | 101.24421 | 32121 ft | 403 kts | 278° |
| 2026-04-17 18:46 | 30.84169 | 101.17968 | 32123 ft | 404 kts | 278° |
| 2026-04-17 18:46 | 30.84770 | 101.10363 | 32125 ft | 404 kts | 278° |
| 2026-04-17 18:47 | 30.85185 | 101.04955 | 32122 ft | 404 kts | 278° |
| 2026-04-17 18:47 | 30.85765 | 100.97394 | 32122 ft | 404 kts | 278° |
| 2026-04-17 18:48 | 30.86265 | 100.90876 | 32117 ft | 404 kts | 278° |
| 2026-04-17 18:48 | 30.86676 | 100.85457 | 32101 ft | 404 kts | 278° |
| 2026-04-17 18:49 | 30.87172 | 100.78934 | 32107 ft | 405 kts | 278° |
| 2026-04-17 18:49 | 30.87671 | 100.72404 | 32113 ft | 405 kts | 278° |
| 2026-04-17 18:50 | 30.88163 | 100.65863 | 32116 ft | 406 kts | 278° |
| 2026-04-17 18:50 | 30.88639 | 100.59359 | 32118 ft | 406 kts | 277° |
| 2026-04-17 18:51 | 30.89116 | 100.52804 | 32119 ft | 407 kts | 277° |
| 2026-04-17 18:51 | 30.89600 | 100.46237 | 32123 ft | 407 kts | 277° |
| 2026-04-17 18:52 | 30.90075 | 100.39698 | 32130 ft | 408 kts | 277° |
| 2026-04-17 18:52 | 30.90552 | 100.33120 | 32132 ft | 408 kts | 277° |
| 2026-04-17 18:53 | 30.91028 | 100.26531 | 32134 ft | 408 kts | 277° |
| 2026-04-17 18:53 | 30.91494 | 100.19944 | 32136 ft | 408 kts | 277° |
| 2026-04-17 18:54 | 30.91959 | 100.13347 | 32147 ft | 409 kts | 277° |
| 2026-04-17 18:54 | 30.92417 | 100.06794 | 32144 ft | 408 kts | 277° |
| 2026-04-17 18:55 | 30.92873 | 100.00205 | 32144 ft | 408 kts | 277° |
| 2026-04-17 18:55 | 30.93366 | 99.93607 | 32146 ft | 409 kts | 278° |
| 2026-04-17 18:56 | 30.93907 | 99.87018 | 32146 ft | 409 kts | 278° |
| 2026-04-17 18:56 | 30.94446 | 99.80468 | 32146 ft | 409 kts | 278° |
| 2026-04-17 18:57 | 30.94969 | 99.73867 | 32150 ft | 409 kts | 278° |
| 2026-04-17 18:57 | 30.95478 | 99.67256 | 32150 ft | 410 kts | 277° |
| 2026-04-17 18:58 | 30.95980 | 99.60635 | 32150 ft | 411 kts | 277° |
| 2026-04-17 18:58 | 30.96488 | 99.54054 | 32139 ft | 411 kts | 277° |
| 2026-04-17 18:59 | 30.97002 | 99.47424 | 32145 ft | 411 kts | 277° |
| 2026-04-17 18:59 | 30.97503 | 99.40786 | 32143 ft | 412 kts | 277° |
| 2026-04-17 19:00 | 30.97999 | 99.34143 | 32144 ft | 412 kts | 277° |
| 2026-04-17 19:00 | 30.98492 | 99.27542 | 32142 ft | 412 kts | 277° |
| 2026-04-17 19:01 | 30.98986 | 99.20890 | 32138 ft | 412 kts | 277° |
| 2026-04-17 19:01 | 30.99476 | 99.14227 | 32138 ft | 412 kts | 277° |
| 2026-04-17 19:02 | 30.99963 | 99.07567 | 32144 ft | 413 kts | 277° |
| 2026-04-17 19:02 | 31.00445 | 99.00947 | 32135 ft | 413 kts | 277° |
| 2026-04-17 19:03 | 31.00928 | 98.94284 | 32134 ft | 412 kts | 277° |
| 2026-04-17 19:04 | 31.01932 | 98.80236 | 32143 ft | 413 kts | 277° |
| 2026-04-17 19:04 | 31.02396 | 98.73619 | 32138 ft | 412 kts | 277° |
| 2026-04-17 19:05 | 31.02864 | 98.66948 | 32139 ft | 413 kts | 276° |
| 2026-04-17 19:05 | 31.03377 | 98.60281 | 32142 ft | 413 kts | 277° |
| 2026-04-17 19:06 | 31.03950 | 98.53636 | 32140 ft | 412 kts | 277° |
| 2026-04-17 19:06 | 31.04518 | 98.47037 | 32139 ft | 412 kts | 277° |
| 2026-04-17 19:07 | 31.05063 | 98.40393 | 32137 ft | 411 kts | 277° |
| 2026-04-17 19:07 | 31.05600 | 98.33758 | 32138 ft | 411 kts | 277° |
| 2026-04-17 19:08 | 31.06137 | 98.27116 | 32141 ft | 412 kts | 277° |
| 2026-04-17 19:08 | 31.06678 | 98.20474 | 32136 ft | 411 kts | 277° |
| 2026-04-17 19:09 | 31.07204 | 98.13887 | 32134 ft | 411 kts | 277° |
| 2026-04-17 19:09 | 31.07730 | 98.07251 | 32133 ft | 411 kts | 277° |
| 2026-04-17 19:10 | 31.08269 | 98.00614 | 32134 ft | 411 kts | 277° |
| 2026-04-17 19:10 | 31.08807 | 97.94016 | 32138 ft | 411 kts | 277° |
| 2026-04-17 19:11 | 31.09334 | 97.87378 | 32136 ft | 411 kts | 277° |
| 2026-04-17 19:11 | 31.09860 | 97.80732 | 32135 ft | 411 kts | 277° |
| 2026-04-17 19:12 | 31.10381 | 97.74086 | 32140 ft | 411 kts | 277° |
| 2026-04-17 19:12 | 31.10897 | 97.67447 | 32141 ft | 411 kts | 277° |
| 2026-04-17 19:13 | 31.11410 | 97.60844 | 32134 ft | 411 kts | 277° |
| 2026-04-17 19:13 | 31.11923 | 97.54199 | 32125 ft | 411 kts | 277° |
| 2026-04-17 19:14 | 31.12430 | 97.47552 | 32137 ft | 411 kts | 277° |
| 2026-04-17 19:14 | 31.12932 | 97.40898 | 32130 ft | 411 kts | 277° |
| 2026-04-17 19:15 | 31.13436 | 97.34241 | 32129 ft | 412 kts | 277° |
| 2026-04-17 19:15 | 31.13933 | 97.27623 | 32131 ft | 412 kts | 277° |
| 2026-04-17 19:16 | 31.14429 | 97.20945 | 32128 ft | 413 kts | 276° |
| 2026-04-17 19:16 | 31.13953 | 97.14244 | 32141 ft | 420 kts | 259° |
| 2026-04-17 19:17 | 31.12530 | 97.07639 | 32139 ft | 419 kts | 259° |
| 2026-04-17 19:17 | 31.11120 | 97.01078 | 32153 ft | 420 kts | 259° |
| 2026-04-17 19:18 | 31.09704 | 96.94473 | 32152 ft | 420 kts | 259° |
| 2026-04-17 19:18 | 31.08284 | 96.87865 | 32163 ft | 420 kts | 259° |
| 2026-04-17 19:19 | 31.06860 | 96.81258 | 32166 ft | 420 kts | 259° |
| 2026-04-17 19:19 | 31.05429 | 96.74664 | 32171 ft | 419 kts | 259° |
| 2026-04-17 19:20 | 31.04005 | 96.68116 | 32186 ft | 419 kts | 259° |
| 2026-04-17 19:20 | 31.02574 | 96.61536 | 32185 ft | 418 kts | 259° |
| 2026-04-17 19:21 | 31.01147 | 96.54956 | 32191 ft | 418 kts | 259° |
| 2026-04-17 19:21 | 30.99723 | 96.48430 | 32196 ft | 418 kts | 258° |
| 2026-04-17 19:22 | 30.98283 | 96.41868 | 32205 ft | 418 kts | 259° |
| 2026-04-17 19:22 | 30.96879 | 96.35310 | 32208 ft | 417 kts | 259° |
| 2026-04-17 19:23 | 30.94815 | 96.25485 | 32207 ft | 416 kts | 259° |
| 2026-04-17 19:24 | 30.93440 | 96.18993 | 32200 ft | 415 kts | 259° |
| 2026-04-17 19:24 | 30.92047 | 96.12462 | 32202 ft | 415 kts | 259° |
| 2026-04-17 19:25 | 30.90650 | 96.05932 | 32202 ft | 415 kts | 259° |
| 2026-04-17 19:25 | 30.89254 | 95.99404 | 32205 ft | 416 kts | 259° |
| 2026-04-17 19:26 | 30.87867 | 95.92926 | 32206 ft | 415 kts | 259° |
| 2026-04-17 19:26 | 30.86465 | 95.86409 | 32207 ft | 415 kts | 259° |
| 2026-04-17 19:27 | 30.85059 | 95.79893 | 32214 ft | 415 kts | 259° |
| 2026-04-17 19:27 | 30.83649 | 95.73386 | 32216 ft | 415 kts | 259° |
| 2026-04-17 19:28 | 30.82283 | 95.66910 | 32224 ft | 415 kts | 259° |
| 2026-04-17 19:28 | 30.80954 | 95.60389 | 32222 ft | 414 kts | 259° |
| 2026-04-17 19:29 | 30.79621 | 95.53877 | 32232 ft | 414 kts | 259° |
| 2026-04-17 19:29 | 30.78270 | 95.47360 | 32245 ft | 415 kts | 259° |
| 2026-04-17 19:30 | 30.76919 | 95.40888 | 32253 ft | 414 kts | 259° |
| 2026-04-17 19:30 | 30.75559 | 95.34381 | 32261 ft | 414 kts | 259° |
| 2026-04-17 19:31 | 30.74203 | 95.27872 | 32267 ft | 414 kts | 259° |
| 2026-04-17 19:31 | 30.72836 | 95.21365 | 32276 ft | 414 kts | 259° |
| 2026-04-17 19:32 | 30.71470 | 95.14858 | 32280 ft | 414 kts | 259° |
| 2026-04-17 19:32 | 30.70112 | 95.08397 | 32290 ft | 414 kts | 259° |
| 2026-04-17 19:33 | 30.68738 | 95.01902 | 32289 ft | 414 kts | 259° |
| 2026-04-17 19:33 | 30.67361 | 94.95406 | 32294 ft | 413 kts | 259° |
| 2026-04-17 19:34 | 30.65988 | 94.88922 | 32240 ft | 414 kts | 259° |
| 2026-04-17 19:34 | 30.65296 | 94.85673 | 31994 ft | 415 kts | 258° |
| 2026-04-17 19:34 | 30.64611 | 94.82464 | 31746 ft | 416 kts | 258° |
| 2026-04-17 19:34 | 30.63912 | 94.79200 | 31495 ft | 417 kts | 258° |
| 2026-04-17 19:35 | 30.63212 | 94.75926 | 31257 ft | 418 kts | 258° |
| 2026-04-17 19:35 | 30.62511 | 94.72643 | 31012 ft | 420 kts | 258° |
| 2026-04-17 19:35 | 30.61809 | 94.69344 | 30776 ft | 422 kts | 258° |
| 2026-04-17 19:35 | 30.61103 | 94.66038 | 30530 ft | 423 kts | 258° |
| 2026-04-17 19:36 | 30.60393 | 94.62718 | 30308 ft | 425 kts | 258° |
| 2026-04-17 19:36 | 30.59675 | 94.59391 | 30033 ft | 426 kts | 258° |
| 2026-04-17 19:36 | 30.58962 | 94.56099 | 29761 ft | 427 kts | 258° |
| 2026-04-17 19:36 | 30.58237 | 94.52752 | 29494 ft | 428 kts | 258° |
| 2026-04-17 19:37 | 30.57511 | 94.49402 | 29227 ft | 429 kts | 258° |
| 2026-04-17 19:37 | 30.56782 | 94.46040 | 28957 ft | 431 kts | 258° |
| 2026-04-17 19:37 | 30.56054 | 94.42675 | 28687 ft | 429 kts | 258° |
| 2026-04-17 19:37 | 30.55330 | 94.39337 | 28424 ft | 426 kts | 258° |
| 2026-04-17 19:38 | 30.54608 | 94.36008 | 28164 ft | 425 kts | 258° |
| 2026-04-17 19:38 | 30.53887 | 94.32692 | 27907 ft | 424 kts | 258° |
| 2026-04-17 19:38 | 30.53173 | 94.29427 | 27652 ft | 424 kts | 257° |
| 2026-04-17 19:38 | 30.52165 | 94.26213 | 27396 ft | 425 kts | 247° |
| 2026-04-17 19:39 | 30.50671 | 94.23255 | 27138 ft | 428 kts | 237° |
| 2026-04-17 19:39 | 30.48729 | 94.20633 | 26893 ft | 431 kts | 227° |
| 2026-04-17 19:39 | 30.46391 | 94.18443 | 26654 ft | 434 kts | 217° |
| 2026-04-17 19:39 | 30.43733 | 94.16761 | 26406 ft | 438 kts | 207° |
| 2026-04-17 19:40 | 30.40869 | 94.15524 | 26165 ft | 440 kts | 203° |
| 2026-04-17 19:40 | 30.37999 | 94.14327 | 25926 ft | 438 kts | 203° |
| 2026-04-17 19:40 | 30.35172 | 94.13148 | 25689 ft | 437 kts | 203° |
| 2026-04-17 19:40 | 30.32321 | 94.11955 | 25449 ft | 435 kts | 203° |
| 2026-04-17 19:41 | 30.29481 | 94.10766 | 25218 ft | 433 kts | 203° |
| 2026-04-17 19:41 | 30.26647 | 94.09575 | 24987 ft | 432 kts | 203° |
| 2026-04-17 19:41 | 30.23824 | 94.08387 | 24760 ft | 432 kts | 203° |
| 2026-04-17 19:41 | 30.21003 | 94.07203 | 24529 ft | 430 kts | 203° |
| 2026-04-17 19:42 | 30.18189 | 94.06025 | 24302 ft | 430 kts | 203° |
| 2026-04-17 19:42 | 30.15382 | 94.04848 | 24069 ft | 429 kts | 202° |
| 2026-04-17 19:42 | 30.12583 | 94.03677 | 23847 ft | 428 kts | 202° |
| 2026-04-17 19:42 | 30.09784 | 94.02509 | 23607 ft | 427 kts | 202° |
| 2026-04-17 19:43 | 30.07026 | 94.01358 | 23376 ft | 426 kts | 202° |
| 2026-04-17 19:43 | 30.04243 | 94.00195 | 23407 ft | 425 kts | 202° |
| 2026-04-17 19:43 | 30.01512 | 93.99058 | 23405 ft | 409 kts | 202° |
| 2026-04-17 19:43 | 29.99764 | 93.98333 | 23408 ft | 399 kts | 202° |
| 2026-04-17 19:44 | 29.96356 | 93.96920 | 23405 ft | 380 kts | 202° |
| 2026-04-17 19:44 | 29.93918 | 93.95910 | 23403 ft | 365 kts | 202° |
| 2026-04-17 19:44 | 29.92345 | 93.95299 | 23400 ft | 358 kts | 198° |
| 2026-04-17 19:44 | 29.89068 | 93.94842 | 23396 ft | 356 kts | 181° |
| 2026-04-17 19:45 | 29.86653 | 93.95256 | 23196 ft | 355 kts | 166° |
| 2026-04-17 19:45 | 29.85085 | 93.95858 | 23102 ft | 348 kts | 163° |
| 2026-04-17 19:45 | 29.82770 | 93.96416 | 22927 ft | 334 kts | 180° |
| 2026-04-17 19:45 | 29.79782 | 93.96029 | 22520 ft | 323 kts | 199° |
| 2026-04-17 19:46 | 29.77718 | 93.95091 | 22191 ft | 317 kts | 211° |
| 2026-04-17 19:46 | 29.76480 | 93.94217 | 21976 ft | 314 kts | 219° |
| 2026-04-17 19:46 | 29.74858 | 93.92569 | 21638 ft | 310 kts | 230° |
| 2026-04-17 19:46 | 29.73483 | 93.90685 | 21391 ft | 305 kts | 232° |
| 2026-04-17 19:47 | 29.71682 | 93.88221 | 21162 ft | 303 kts | 231° |
| 2026-04-17 19:47 | 29.70325 | 93.86372 | 20992 ft | 302 kts | 231° |
| 2026-04-17 19:47 | 29.69412 | 93.85130 | 20881 ft | 301 kts | 231° |
| 2026-04-17 19:47 | 29.68043 | 93.83310 | 20704 ft | 301 kts | 226° |
| 2026-04-17 19:48 | 29.66464 | 93.81784 | 20540 ft | 301 kts | 214° |
| 2026-04-17 19:48 | 29.63948 | 93.80370 | 20319 ft | 302 kts | 199° |
| 2026-04-17 19:48 | 29.62597 | 93.79982 | 20209 ft | 303 kts | 190° |
| 2026-04-17 19:48 | 29.60499 | 93.79812 | 20031 ft | 303 kts | 178° |
| 2026-04-17 19:49 | 29.58410 | 93.80153 | 19861 ft | 304 kts | 166° |
| 2026-04-17 19:49 | 29.55824 | 93.81360 | 19640 ft | 304 kts | 150° |
| 2026-04-17 19:49 | 29.54636 | 93.82273 | 19525 ft | 304 kts | 145° |
| 2026-04-17 19:49 | 29.52916 | 93.83677 | 19358 ft | 303 kts | 146° |
| 2026-04-17 19:50 | 29.50633 | 93.85508 | 19130 ft | 301 kts | 146° |
| 2026-04-17 19:50 | 29.49494 | 93.86416 | 19019 ft | 300 kts | 146° |
| 2026-04-17 19:50 | 29.47780 | 93.87780 | 18848 ft | 299 kts | 146° |
| 2026-04-17 19:50 | 29.46075 | 93.89139 | 18684 ft | 298 kts | 146° |
| 2026-04-17 19:51 | 29.44363 | 93.90466 | 18515 ft | 296 kts | 151° |
| 2026-04-17 19:51 | 29.41869 | 93.91656 | 18279 ft | 292 kts | 167° |
| 2026-04-17 19:51 | 29.40525 | 93.91942 | 18165 ft | 290 kts | 175° |
| 2026-04-17 19:51 | 29.38581 | 93.92148 | 17903 ft | 292 kts | 171° |
| 2026-04-17 19:52 | 29.35999 | 93.93058 | 17343 ft | 296 kts | 155° |
| 2026-04-17 19:52 | 29.34250 | 93.94276 | 17002 ft | 296 kts | 143° |
| 2026-04-17 19:52 | 29.33232 | 93.95306 | 16842 ft | 294 kts | 135° |
| 2026-04-17 19:52 | 29.31955 | 93.97141 | 16462 ft | 296 kts | 122° |
| 2026-04-17 19:53 | 29.30905 | 93.99146 | 16218 ft | 292 kts | 126° |
| 2026-04-17 19:53 | 29.29583 | 94.00892 | 15903 ft | 289 kts | 138° |
| 2026-04-17 19:53 | 29.27431 | 94.02651 | 15528 ft | 286 kts | 153° |
| 2026-04-17 19:53 | 29.25625 | 94.03592 | 15173 ft | 287 kts | 154° |
| 2026-04-17 19:54 | 29.24435 | 94.04349 | 14835 ft | 292 kts | 147° |
| 2026-04-17 19:54 | 29.22810 | 94.05755 | 14445 ft | 294 kts | 138° |
| 2026-04-17 19:54 | 29.21407 | 94.07425 | 14087 ft | 296 kts | 128° |
| 2026-04-17 19:54 | 29.20355 | 94.09462 | 13621 ft | 301 kts | 111° |
| 2026-04-17 19:55 | 29.19802 | 94.11781 | 13162 ft | 303 kts | 101° |
| 2026-04-17 19:55 | 29.19450 | 94.14113 | 12882 ft | 291 kts | 92° |
| 2026-04-17 19:55 | 29.19625 | 94.16359 | 12564 ft | 279 kts | 75° |
| 2026-04-17 19:55 | 29.20335 | 94.18369 | 12204 ft | 268 kts | 59° |
| 2026-04-17 19:56 | 29.21451 | 94.20010 | 11875 ft | 255 kts | 44° |
| 2026-04-17 19:56 | 29.22630 | 94.21435 | 11611 ft | 237 kts | 52° |
| 2026-04-17 19:56 | 29.23485 | 94.22928 | 11331 ft | 219 kts | 59° |
| 2026-04-17 19:56 | 29.24226 | 94.24366 | 11069 ft | 202 kts | 59° |
| 2026-04-17 19:57 | 29.24926 | 94.25704 | 10836 ft | 190 kts | 59° |
| 2026-04-17 19:57 | 29.25584 | 94.26972 | 10568 ft | 181 kts | 59° |
| 2026-04-17 19:57 | 29.26297 | 94.28113 | 10350 ft | 173 kts | 48° |
| 2026-04-17 19:57 | 29.27138 | 94.29089 | 10183 ft | 172 kts | 41° |
| 2026-04-17 19:58 | 29.28059 | 94.29945 | 10003 ft | 169 kts | 43° |
| 2026-04-17 19:58 | 29.28817 | 94.30981 | 9914 ft | 170 kts | 55° |
| 2026-04-17 19:58 | 29.29479 | 94.32081 | 9746 ft | 170 kts | 54° |
| 2026-04-17 19:58 | 29.30112 | 94.33117 | 9685 ft | 150 kts | 55° |
| 2026-04-17 19:59 | 29.30632 | 94.33938 | 9694 ft | 103 kts | 52° |
| 2026-04-17 19:59 | 29.30946 | 94.34446 | 9689 ft | 58 kts | 54° |
| 2026-04-17 19:59 | 29.31098 | 94.34690 | 9690 ft | 21 kts | 51° |
| 2026-04-17 19:59 | 29.31250 | 94.34659 | 9690 ft | 29 kts | 320° |
| 2026-04-17 20:00 | 29.31224 | 94.34570 | 9689 ft | 15 kts | 235° |
| 2026-04-17 20:00 | 29.31152 | 94.34453 | 9690 ft | 21 kts | 234° |
| 2026-04-17 20:00 | 29.31058 | 94.34304 | 9688 ft | 26 kts | 236° |
| 2026-04-17 20:00 | 29.30944 | 94.34119 | 9691 ft | 31 kts | 234° |
| 2026-04-17 20:01 | 29.30817 | 94.33912 | 9688 ft | 22 kts | 235° |
| 2026-04-17 20:01 | 29.30745 | 94.33795 | 9683 ft | 12 kts | 241° |
| 2026-04-17 20:01 | 29.30805 | 94.33708 | 9681 ft | 17 kts | 310° |
| 2026-04-17 20:01 | 29.30772 | 94.33637 | 9678 ft | 13 kts | 234° |
| 2026-04-17 20:02 | 29.30725 | 94.33562 | 9680 ft | 11 kts | 235° |
| 2026-04-17 20:02 | 29.30714 | 94.33520 | 9679 ft | 7 kts | 307° |
| 2026-04-17 20:02 | 29.30743 | 94.33499 | 9678 ft | 5 kts | 335° |
| 2026-04-17 20:02 | 29.30744 | 94.33498 | 9675 ft | 0 kts | 336° |
| 2026-04-17 20:03 | 29.30731 | 94.33507 | 9680 ft | 2 kts | 320° |
| 2026-04-17 20:04 | 29.30734 | 94.33506 | 9680 ft | 2 kts | 326° |
| 2026-04-17 20:04 | 29.30744 | 94.33498 | 9677 ft | 1 kts | 326° |
| 2026-04-17 20:04 | 29.30746 | 94.33497 | 9677 ft | 0 kts | 326° |